CLH2ME EDDB-LIMJ
Flight info
| Callsign | CLH2ME |
|---|---|
| Flight time | N/A |
| Altitude | 36000 |
| Route | LUROS4B/06L LUROS Y211 BEBKU Z36 MAREM DCT RUDAP DCT EBEDA DCT BADVI DCT BERAS DCT OLPIX DCT ATPED DCT LUSIL |
| Aircraft | A319/M-SDE3FGHIRWY/LB1 |
Departure
| Time | N/A |
|---|---|
| Airport | Berlin Brandenburg Airport (EDDB) |
Arrival
| Time | 2026-04-21 21:20 |
|---|---|
| Airport | Genoa Cristoforo Colombo Airport (LIMJ) |
| Time | Latitude | Longitude | Altitude | Speed | Heading |
|---|---|---|---|---|---|
| 2026-04-21 20:01 | 48.29610 | 12.26684 | 36243 ft | 465 kts | 218° |
| 2026-04-21 20:01 | 48.24275 | 12.21174 | 36236 ft | 465 kts | 218° |
| 2026-04-21 20:02 | 48.18944 | 12.15680 | 36241 ft | 465 kts | 217° |
| 2026-04-21 20:02 | 48.13099 | 12.11425 | 36229 ft | 472 kts | 199° |
| 2026-04-21 20:03 | 48.06759 | 12.08724 | 36222 ft | 473 kts | 199° |
| 2026-04-21 20:03 | 48.00431 | 12.06045 | 36196 ft | 473 kts | 199° |
| 2026-04-21 20:04 | 47.94138 | 12.03394 | 36207 ft | 473 kts | 199° |
| 2026-04-21 20:04 | 47.87813 | 12.00716 | 36208 ft | 472 kts | 199° |
| 2026-04-21 20:05 | 47.81499 | 11.98046 | 36208 ft | 472 kts | 199° |
| 2026-04-21 20:05 | 47.75159 | 11.95379 | 36194 ft | 472 kts | 199° |
| 2026-04-21 20:06 | 47.68850 | 11.92632 | 36200 ft | 471 kts | 201° |
| 2026-04-21 20:06 | 47.67790 | 11.92137 | 36192 ft | 471 kts | 201° |
| 2026-04-21 20:07 | 47.62612 | 11.89246 | 36146 ft | 468 kts | 204° |
| 2026-04-21 20:08 | 47.56430 | 11.86294 | 36133 ft | 468 kts | 200° |
| 2026-04-21 20:08 | 47.50154 | 11.83606 | 36138 ft | 470 kts | 200° |
| 2026-04-21 20:09 | 47.43900 | 11.80779 | 36143 ft | 469 kts | 201° |
| 2026-04-21 20:09 | 47.37707 | 11.77840 | 36133 ft | 470 kts | 202° |
| 2026-04-21 20:10 | 47.31271 | 11.75833 | 36150 ft | 476 kts | 193° |
| 2026-04-21 20:10 | 47.24717 | 11.74303 | 36152 ft | 476 kts | 193° |
| 2026-04-21 20:11 | 47.18170 | 11.72815 | 36137 ft | 476 kts | 193° |
| 2026-04-21 20:11 | 47.11608 | 11.71327 | 36138 ft | 476 kts | 193° |
| 2026-04-21 20:12 | 47.05485 | 11.69619 | 36141 ft | 469 kts | 202° |
| 2026-04-21 20:12 | 46.99749 | 11.65447 | 36108 ft | 455 kts | 221° |
| 2026-04-21 20:13 | 46.95176 | 11.59232 | 36105 ft | 447 kts | 231° |
| 2026-04-21 20:13 | 46.90815 | 11.52734 | 36111 ft | 447 kts | 231° |
| 2026-04-21 20:14 | 46.86437 | 11.46269 | 36075 ft | 440 kts | 231° |
| 2026-04-21 20:14 | 46.84354 | 11.43208 | 35960 ft | 427 kts | 231° |
| 2026-04-21 20:14 | 46.82285 | 11.40162 | 35712 ft | 418 kts | 231° |
| 2026-04-21 20:14 | 46.80259 | 11.37174 | 35432 ft | 409 kts | 232° |
| 2026-04-21 20:15 | 46.78285 | 11.34264 | 35195 ft | 400 kts | 232° |
| 2026-04-21 20:15 | 46.76346 | 11.31403 | 34957 ft | 392 kts | 233° |
| 2026-04-21 20:15 | 46.74457 | 11.28617 | 34704 ft | 382 kts | 233° |
| 2026-04-21 20:15 | 46.72603 | 11.25887 | 34472 ft | 375 kts | 233° |
| 2026-04-21 20:16 | 46.70781 | 11.23210 | 34237 ft | 369 kts | 233° |
| 2026-04-21 20:16 | 46.68988 | 11.20574 | 34003 ft | 363 kts | 233° |
| 2026-04-21 20:16 | 46.67228 | 11.17985 | 33713 ft | 358 kts | 234° |
| 2026-04-21 20:16 | 46.65480 | 11.15413 | 33439 ft | 354 kts | 234° |
| 2026-04-21 20:17 | 46.63759 | 11.12880 | 33160 ft | 350 kts | 235° |
| 2026-04-21 20:17 | 46.62059 | 11.10388 | 33023 ft | 344 kts | 235° |
| 2026-04-21 20:17 | 46.60375 | 11.07930 | 33043 ft | 341 kts | 235° |
| 2026-04-21 20:18 | 46.57596 | 11.03879 | 33046 ft | 340 kts | 235° |
| 2026-04-21 20:18 | 46.53709 | 10.98209 | 33045 ft | 341 kts | 235° |
| 2026-04-21 20:19 | 46.50356 | 10.93328 | 33011 ft | 341 kts | 235° |
| 2026-04-21 20:19 | 46.46998 | 10.88454 | 33041 ft | 343 kts | 235° |
| 2026-04-21 20:20 | 46.43628 | 10.83569 | 33041 ft | 340 kts | 237° |
| 2026-04-21 20:20 | 46.40284 | 10.78739 | 33055 ft | 339 kts | 237° |
| 2026-04-21 20:21 | 46.36938 | 10.73907 | 33050 ft | 340 kts | 236° |
| 2026-04-21 20:21 | 46.33587 | 10.69070 | 33040 ft | 339 kts | 237° |
| 2026-04-21 20:22 | 46.30264 | 10.64282 | 33041 ft | 339 kts | 236° |
| 2026-04-21 20:22 | 46.25241 | 10.57077 | 33050 ft | 339 kts | 237° |
| 2026-04-21 20:23 | 46.21891 | 10.52278 | 33037 ft | 339 kts | 236° |
| 2026-04-21 20:23 | 46.18535 | 10.47491 | 33038 ft | 339 kts | 236° |
| 2026-04-21 20:24 | 46.15465 | 10.42464 | 33038 ft | 327 kts | 246° |
| 2026-04-21 20:24 | 46.13250 | 10.36877 | 33033 ft | 317 kts | 254° |
| 2026-04-21 20:25 | 46.11251 | 10.31220 | 33044 ft | 316 kts | 253° |
| 2026-04-21 20:25 | 46.09252 | 10.25598 | 33032 ft | 314 kts | 254° |
| 2026-04-21 20:26 | 46.07259 | 10.19994 | 33048 ft | 316 kts | 253° |
| 2026-04-21 20:26 | 46.04708 | 10.14673 | 33045 ft | 332 kts | 240° |
| 2026-04-21 20:27 | 46.01145 | 10.10177 | 33041 ft | 351 kts | 227° |
| 2026-04-21 20:27 | 45.99015 | 10.08373 | 33046 ft | 362 kts | 219° |
| 2026-04-21 20:27 | 45.96690 | 10.06870 | 33045 ft | 367 kts | 216° |
| 2026-04-21 20:28 | 45.91999 | 10.03949 | 33011 ft | 367 kts | 216° |
| 2026-04-21 20:28 | 45.87315 | 10.01022 | 33043 ft | 367 kts | 216° |
| 2026-04-21 20:29 | 45.82627 | 9.98097 | 33040 ft | 368 kts | 216° |
| 2026-04-21 20:29 | 45.77938 | 9.95187 | 33035 ft | 367 kts | 216° |
| 2026-04-21 20:30 | 45.73243 | 9.92270 | 32981 ft | 368 kts | 216° |
| 2026-04-21 20:30 | 45.68480 | 9.89292 | 33032 ft | 383 kts | 215° |
| 2026-04-21 20:31 | 45.63687 | 9.86339 | 33026 ft | 369 kts | 215° |
| 2026-04-21 20:31 | 45.58995 | 9.83453 | 33053 ft | 367 kts | 216° |
| 2026-04-21 20:32 | 45.54344 | 9.80577 | 33010 ft | 366 kts | 215° |
| 2026-04-21 20:32 | 45.49664 | 9.77698 | 33039 ft | 366 kts | 215° |
| 2026-04-21 20:33 | 45.44979 | 9.74823 | 33019 ft | 366 kts | 215° |
| 2026-04-21 20:33 | 45.40292 | 9.71943 | 33017 ft | 367 kts | 215° |
| 2026-04-21 20:34 | 45.35599 | 9.69069 | 32984 ft | 367 kts | 215° |
| 2026-04-21 20:34 | 45.30901 | 9.66204 | 33009 ft | 367 kts | 214° |
| 2026-04-21 20:35 | 45.26211 | 9.63346 | 33002 ft | 367 kts | 215° |
| 2026-04-21 20:35 | 45.21527 | 9.60485 | 33000 ft | 367 kts | 215° |
| 2026-04-21 20:36 | 45.16841 | 9.57632 | 32959 ft | 367 kts | 215° |
| 2026-04-21 20:36 | 45.12148 | 9.54780 | 32983 ft | 367 kts | 215° |
| 2026-04-21 20:37 | 45.07479 | 9.51955 | 32991 ft | 367 kts | 214° |
| 2026-04-21 20:37 | 45.02782 | 9.49123 | 32836 ft | 366 kts | 214° |
| 2026-04-21 20:38 | 45.00451 | 9.47717 | 32444 ft | 363 kts | 215° |
| 2026-04-21 20:38 | 44.98131 | 9.46320 | 32009 ft | 361 kts | 214° |
| 2026-04-21 20:38 | 44.95826 | 9.44936 | 31625 ft | 358 kts | 214° |
| 2026-04-21 20:38 | 44.93540 | 9.43560 | 31255 ft | 356 kts | 214° |
| 2026-04-21 20:39 | 44.91273 | 9.42191 | 30873 ft | 354 kts | 214° |
| 2026-04-21 20:39 | 44.89012 | 9.40830 | 30499 ft | 352 kts | 214° |
| 2026-04-21 20:39 | 44.86768 | 9.39482 | 30111 ft | 350 kts | 214° |
| 2026-04-21 20:39 | 44.84531 | 9.38140 | 29685 ft | 348 kts | 214° |
| 2026-04-21 20:40 | 44.82317 | 9.36813 | 29289 ft | 345 kts | 214° |
| 2026-04-21 20:40 | 44.80109 | 9.35492 | 28823 ft | 343 kts | 214° |
| 2026-04-21 20:40 | 44.78660 | 9.34626 | 28571 ft | 341 kts | 214° |
| 2026-04-21 20:40 | 44.75775 | 9.32904 | 28133 ft | 334 kts | 214° |
| 2026-04-21 20:41 | 44.73649 | 9.31632 | 27775 ft | 330 kts | 214° |
| 2026-04-21 20:41 | 44.72250 | 9.30794 | 27524 ft | 329 kts | 214° |
| 2026-04-21 20:41 | 44.70154 | 9.29538 | 27160 ft | 327 kts | 214° |
| 2026-04-21 20:41 | 44.68063 | 9.28292 | 26792 ft | 325 kts | 214° |
| 2026-04-21 20:42 | 44.65995 | 9.27065 | 26496 ft | 322 kts | 214° |
| 2026-04-21 20:42 | 44.63940 | 9.25846 | 26215 ft | 320 kts | 214° |
| 2026-04-21 20:42 | 44.61931 | 9.24548 | 25723 ft | 311 kts | 224° |
| 2026-04-21 20:42 | 44.60393 | 9.22620 | 25361 ft | 286 kts | 244° |
| 2026-04-21 20:43 | 44.59467 | 9.20272 | 24892 ft | 268 kts | 261° |
| 2026-04-21 20:43 | 44.59145 | 9.17772 | 24556 ft | 256 kts | 275° |
| 2026-04-21 20:43 | 44.59340 | 9.15342 | 24258 ft | 247 kts | 289° |
| 2026-04-21 20:43 | 44.59998 | 9.13142 | 23919 ft | 244 kts | 302° |
| 2026-04-21 20:44 | 44.61071 | 9.11298 | 23560 ft | 245 kts | 315° |
| 2026-04-21 20:44 | 44.62487 | 9.09945 | 23167 ft | 251 kts | 328° |
| 2026-04-21 20:44 | 44.64175 | 9.09199 | 22813 ft | 259 kts | 343° |
| 2026-04-21 20:44 | 44.66002 | 9.09195 | 22414 ft | 270 kts | 359° |
| 2026-04-21 20:45 | 44.67838 | 9.10032 | 22014 ft | 287 kts | 17° |
| 2026-04-21 20:45 | 44.69539 | 9.11599 | 21677 ft | 296 kts | 25° |
| 2026-04-21 20:45 | 44.71157 | 9.13353 | 21340 ft | 298 kts | 27° |
| 2026-04-21 20:45 | 44.72761 | 9.15206 | 20997 ft | 298 kts | 28° |
| 2026-04-21 20:46 | 44.74344 | 9.17069 | 20644 ft | 297 kts | 28° |
| 2026-04-21 20:46 | 44.75916 | 9.18920 | 20432 ft | 292 kts | 28° |
| 2026-04-21 20:46 | 44.77449 | 9.20790 | 20173 ft | 296 kts | 36° |
| 2026-04-21 20:46 | 44.78616 | 9.23250 | 19860 ft | 313 kts | 59° |
| 2026-04-21 20:47 | 44.79087 | 9.26296 | 19560 ft | 326 kts | 85° |
| 2026-04-21 20:47 | 44.78689 | 9.29455 | 19252 ft | 332 kts | 112° |
| 2026-04-21 20:47 | 44.77456 | 9.32162 | 18969 ft | 327 kts | 139° |
| 2026-04-21 20:47 | 44.75647 | 9.33963 | 18633 ft | 313 kts | 165° |
| 2026-04-21 20:48 | 44.73610 | 9.34677 | 18279 ft | 294 kts | 188° |
| 2026-04-21 20:48 | 44.71654 | 9.34397 | 17882 ft | 274 kts | 208° |
| 2026-04-21 20:48 | 44.69985 | 9.33322 | 17516 ft | 257 kts | 226° |
| 2026-04-21 20:48 | 44.68593 | 9.31799 | 17127 ft | 253 kts | 230° |
| 2026-04-21 20:49 | 44.67228 | 9.30250 | 16982 ft | 252 kts | 229° |
| 2026-04-21 20:49 | 44.65863 | 9.28700 | 16992 ft | 254 kts | 229° |
| 2026-04-21 20:49 | 44.64492 | 9.27148 | 16993 ft | 254 kts | 229° |
| 2026-04-21 20:49 | 44.63114 | 9.25583 | 16993 ft | 255 kts | 229° |
| 2026-04-21 20:50 | 44.61882 | 9.23876 | 16966 ft | 243 kts | 246° |
| 2026-04-21 20:50 | 44.61288 | 9.21746 | 16975 ft | 231 kts | 268° |
| 2026-04-21 20:50 | 44.61387 | 9.19551 | 16988 ft | 224 kts | 289° |
| 2026-04-21 20:50 | 44.62092 | 9.17669 | 16986 ft | 221 kts | 309° |
| 2026-04-21 20:51 | 44.63302 | 9.16323 | 17005 ft | 227 kts | 328° |
| 2026-04-21 20:51 | 44.64859 | 9.15780 | 16991 ft | 239 kts | 351° |
| 2026-04-21 20:51 | 44.66534 | 9.16262 | 16988 ft | 259 kts | 16° |
| 2026-04-21 20:51 | 44.68063 | 9.17741 | 16992 ft | 271 kts | 28° |
| 2026-04-21 20:52 | 44.69541 | 9.19405 | 16854 ft | 272 kts | 29° |
| 2026-04-21 20:52 | 44.71003 | 9.21081 | 16601 ft | 271 kts | 30° |
| 2026-04-21 20:52 | 44.72451 | 9.22752 | 16262 ft | 267 kts | 30° |
| 2026-04-21 20:52 | 44.73735 | 9.24694 | 16006 ft | 284 kts | 55° |
| 2026-04-21 20:53 | 44.74203 | 9.27434 | 15747 ft | 297 kts | 91° |
| 2026-04-21 20:53 | 44.73556 | 9.30161 | 15501 ft | 296 kts | 128° |
| 2026-04-21 20:53 | 44.72021 | 9.31967 | 15241 ft | 284 kts | 164° |
| 2026-04-21 20:53 | 44.70159 | 9.32396 | 15051 ft | 265 kts | 196° |
| 2026-04-21 20:54 | 44.68483 | 9.31591 | 14993 ft | 248 kts | 222° |
| 2026-04-21 20:54 | 44.67113 | 9.30179 | 14997 ft | 247 kts | 227° |
| 2026-04-21 20:54 | 44.65770 | 9.28682 | 14995 ft | 247 kts | 227° |
| 2026-04-21 20:54 | 44.64434 | 9.27153 | 14994 ft | 249 kts | 226° |
| 2026-04-21 20:55 | 44.63075 | 9.25593 | 14994 ft | 248 kts | 227° |
| 2026-04-21 20:55 | 44.61881 | 9.23914 | 14975 ft | 239 kts | 245° |
| 2026-04-21 20:55 | 44.61335 | 9.21839 | 14985 ft | 225 kts | 269° |
| 2026-04-21 20:55 | 44.61478 | 9.19674 | 14965 ft | 219 kts | 290° |
| 2026-04-21 20:56 | 44.62221 | 9.17866 | 14753 ft | 219 kts | 312° |
| 2026-04-21 20:56 | 44.63470 | 9.16635 | 14483 ft | 225 kts | 334° |
| 2026-04-21 20:56 | 44.65035 | 9.16265 | 14187 ft | 236 kts | 358° |
| 2026-04-21 20:56 | 44.66635 | 9.16957 | 13917 ft | 250 kts | 26° |
| 2026-04-21 20:57 | 44.68048 | 9.18430 | 13638 ft | 254 kts | 32° |
| 2026-04-21 20:57 | 44.69430 | 9.19989 | 13361 ft | 255 kts | 33° |
| 2026-04-21 20:57 | 44.70802 | 9.21559 | 13091 ft | 254 kts | 33° |
| 2026-04-21 20:57 | 44.72168 | 9.23125 | 12720 ft | 252 kts | 33° |
| 2026-04-21 20:58 | 44.73326 | 9.24996 | 12421 ft | 260 kts | 60° |
| 2026-04-21 20:58 | 44.73727 | 9.27465 | 12147 ft | 265 kts | 92° |
| 2026-04-21 20:58 | 44.73187 | 9.29918 | 11815 ft | 265 kts | 125° |
| 2026-04-21 20:58 | 44.71862 | 9.31635 | 11543 ft | 258 kts | 157° |
| 2026-04-21 20:59 | 44.70160 | 9.32206 | 11227 ft | 248 kts | 187° |
| 2026-04-21 20:59 | 44.68547 | 9.31601 | 11020 ft | 238 kts | 215° |
| 2026-04-21 20:59 | 44.67210 | 9.30267 | 11000 ft | 237 kts | 223° |
| 2026-04-21 20:59 | 44.65913 | 9.28822 | 11002 ft | 238 kts | 224° |
| 2026-04-21 21:00 | 44.64628 | 9.27356 | 10999 ft | 238 kts | 224° |
| 2026-04-21 21:00 | 44.63343 | 9.25885 | 11003 ft | 238 kts | 223° |
| 2026-04-21 21:00 | 44.62118 | 9.24338 | 10989 ft | 234 kts | 238° |
| 2026-04-21 21:00 | 44.61455 | 9.22315 | 10809 ft | 226 kts | 264° |
| 2026-04-21 21:01 | 44.61551 | 9.20166 | 10560 ft | 221 kts | 290° |
| 2026-04-21 21:01 | 44.62334 | 9.18335 | 10318 ft | 221 kts | 315° |
| 2026-04-21 21:01 | 44.63630 | 9.17190 | 10091 ft | 225 kts | 341° |
| 2026-04-21 21:01 | 44.65195 | 9.17005 | 9988 ft | 231 kts | 8° |
| 2026-04-21 21:02 | 44.66679 | 9.17902 | 9985 ft | 238 kts | 34° |
| 2026-04-21 21:02 | 44.67983 | 9.19362 | 9997 ft | 240 kts | 36° |
| 2026-04-21 21:02 | 44.69283 | 9.20839 | 9990 ft | 241 kts | 36° |
| 2026-04-21 21:02 | 44.70569 | 9.22303 | 10002 ft | 241 kts | 36° |
| 2026-04-21 21:03 | 44.71631 | 9.24157 | 9992 ft | 246 kts | 69° |
| 2026-04-21 21:03 | 44.71693 | 9.26545 | 9993 ft | 250 kts | 107° |
| 2026-04-21 21:03 | 44.70834 | 9.28608 | 10002 ft | 250 kts | 137° |
| 2026-04-21 21:03 | 44.69374 | 9.29900 | 9999 ft | 247 kts | 166° |
| 2026-04-21 21:04 | 44.67703 | 9.30057 | 10006 ft | 241 kts | 196° |
| 2026-04-21 21:04 | 44.66217 | 9.29084 | 10000 ft | 235 kts | 221° |
| 2026-04-21 21:04 | 44.64932 | 9.27662 | 9995 ft | 236 kts | 223° |
| 2026-04-21 21:04 | 44.63650 | 9.26212 | 10003 ft | 236 kts | 223° |
| 2026-04-21 21:05 | 44.62358 | 9.24796 | 9993 ft | 236 kts | 219° |
| 2026-04-21 21:05 | 44.60969 | 9.23532 | 9993 ft | 238 kts | 216° |
| 2026-04-21 21:05 | 44.59542 | 9.22344 | 9991 ft | 238 kts | 214° |
| 2026-04-21 21:05 | 44.58103 | 9.21174 | 9989 ft | 238 kts | 214° |
| 2026-04-21 21:06 | 44.56674 | 9.20013 | 9994 ft | 237 kts | 214° |
| 2026-04-21 21:06 | 44.55248 | 9.18848 | 9983 ft | 237 kts | 214° |
| 2026-04-21 21:06 | 44.53820 | 9.17674 | 9982 ft | 238 kts | 214° |
| 2026-04-21 21:06 | 44.52396 | 9.16496 | 9991 ft | 238 kts | 214° |
| 2026-04-21 21:07 | 44.50977 | 9.15317 | 9984 ft | 237 kts | 215° |
| 2026-04-21 21:07 | 44.49554 | 9.14135 | 9984 ft | 238 kts | 214° |
| 2026-04-21 21:07 | 44.48148 | 9.12965 | 9987 ft | 238 kts | 215° |
| 2026-04-21 21:07 | 44.46727 | 9.11784 | 9983 ft | 237 kts | 215° |
| 2026-04-21 21:08 | 44.45305 | 9.10605 | 9976 ft | 237 kts | 215° |
| 2026-04-21 21:08 | 44.43868 | 9.09444 | 9865 ft | 239 kts | 211° |
| 2026-04-21 21:08 | 44.42328 | 9.08551 | 9722 ft | 240 kts | 201° |
| 2026-04-21 21:08 | 44.40700 | 9.08006 | 9590 ft | 242 kts | 192° |
| 2026-04-21 21:09 | 44.39028 | 9.07760 | 9453 ft | 241 kts | 189° |
| 2026-04-21 21:09 | 44.37352 | 9.07538 | 9321 ft | 242 kts | 189° |
| 2026-04-21 21:09 | 44.35678 | 9.07316 | 9190 ft | 241 kts | 188° |
| 2026-04-21 21:09 | 44.34007 | 9.07094 | 9059 ft | 241 kts | 188° |
| 2026-04-21 21:10 | 44.32341 | 9.06873 | 8926 ft | 240 kts | 188° |
| 2026-04-21 21:10 | 44.30673 | 9.06722 | 8721 ft | 240 kts | 180° |
| 2026-04-21 21:10 | 44.29028 | 9.07084 | 8430 ft | 239 kts | 165° |
| 2026-04-21 21:10 | 44.27501 | 9.08004 | 8312 ft | 242 kts | 150° |
| 2026-04-21 21:11 | 44.26131 | 9.09375 | 8191 ft | 242 kts | 143° |
| 2026-04-21 21:11 | 44.24795 | 9.10797 | 8052 ft | 242 kts | 143° |
| 2026-04-21 21:11 | 44.23455 | 9.12217 | 7926 ft | 242 kts | 143° |
| 2026-04-21 21:11 | 44.22114 | 9.13638 | 7799 ft | 241 kts | 143° |
| 2026-04-21 21:12 | 44.20904 | 9.15238 | 7629 ft | 239 kts | 123° |
| 2026-04-21 21:12 | 44.20287 | 9.17372 | 7570 ft | 239 kts | 96° |
| 2026-04-21 21:12 | 44.20420 | 9.19647 | 7518 ft | 236 kts | 68° |
| 2026-04-21 21:12 | 44.21252 | 9.21567 | 7390 ft | 231 kts | 41° |
| 2026-04-21 21:13 | 44.22582 | 9.22764 | 7189 ft | 234 kts | 16° |
| 2026-04-21 21:13 | 44.24239 | 9.23313 | 7007 ft | 255 kts | 9° |
| 2026-04-21 21:13 | 44.25964 | 9.23814 | 6721 ft | 252 kts | 10° |
| 2026-04-21 21:13 | 44.27692 | 9.24040 | 6371 ft | 248 kts | 353° |
| 2026-04-21 21:14 | 44.29336 | 9.23371 | 5982 ft | 246 kts | 331° |
| 2026-04-21 21:14 | 44.30727 | 9.22009 | 5585 ft | 245 kts | 322° |
| 2026-04-21 21:14 | 44.32087 | 9.20557 | 5185 ft | 246 kts | 322° |
| 2026-04-21 21:14 | 44.33338 | 9.19018 | 5041 ft | 235 kts | 308° |
| 2026-04-21 21:15 | 44.34111 | 9.17060 | 4808 ft | 229 kts | 288° |
| 2026-04-21 21:15 | 44.34586 | 9.14939 | 4496 ft | 228 kts | 287° |
| 2026-04-21 21:15 | 44.35061 | 9.12825 | 4172 ft | 228 kts | 287° |
| 2026-04-21 21:15 | 44.35526 | 9.10700 | 3847 ft | 228 kts | 287° |
| 2026-04-21 21:16 | 44.35986 | 9.08582 | 3527 ft | 227 kts | 287° |
| 2026-04-21 21:16 | 44.36437 | 9.06502 | 3211 ft | 220 kts | 287° |
| 2026-04-21 21:16 | 44.36875 | 9.04484 | 2906 ft | 213 kts | 287° |
| 2026-04-21 21:16 | 44.37297 | 9.02536 | 2607 ft | 207 kts | 287° |
| 2026-04-21 21:17 | 44.37703 | 9.00657 | 2355 ft | 196 kts | 287° |
| 2026-04-21 21:17 | 44.38088 | 8.98877 | 2058 ft | 187 kts | 287° |
| 2026-04-21 21:17 | 44.38455 | 8.97179 | 1791 ft | 178 kts | 287° |
| 2026-04-21 21:17 | 44.38802 | 8.95571 | 1527 ft | 168 kts | 287° |
| 2026-04-21 21:18 | 44.39177 | 8.94078 | 1322 ft | 154 kts | 289° |
| 2026-04-21 21:18 | 44.39503 | 8.92721 | 1091 ft | 142 kts | 287° |
| 2026-04-21 21:18 | 44.39790 | 8.91433 | 887 ft | 137 kts | 285° |
| 2026-04-21 21:18 | 44.40046 | 8.90152 | 677 ft | 138 kts | 284° |
| 2026-04-21 21:19 | 44.40302 | 8.88859 | 484 ft | 138 kts | 282° |
| 2026-04-21 21:19 | 44.40536 | 8.87579 | 329 ft | 135 kts | 284° |
| 2026-04-21 21:19 | 44.40775 | 8.86310 | 154 ft | 135 kts | 285° |
| 2026-04-21 21:19 | 44.41024 | 8.85055 | 19 ft | 126 kts | 284° |
| 2026-04-21 21:20 | 44.41200 | 8.84156 | 25 ft | 70 kts | 286° |
| 2026-04-21 21:20 | 44.41294 | 8.83680 | 20 ft | 41 kts | 285° |
| 2026-04-21 21:20 | 44.41363 | 8.83333 | 24 ft | 34 kts | 285° |
| 2026-04-21 21:20 | 44.41462 | 8.83107 | 24 ft | 21 kts | 321° |
| 2026-04-21 21:21 | 44.41549 | 8.83133 | 25 ft | 12 kts | 81° |
| 2026-04-21 21:21 | 44.41535 | 8.83235 | 25 ft | 8 kts | 105° |
| 2026-04-21 21:21 | 44.41522 | 8.83302 | 24 ft | 7 kts | 105° |
| 2026-04-21 21:21 | 44.41509 | 8.83372 | 24 ft | 7 kts | 105° |
| 2026-04-21 21:22 | 44.41495 | 8.83444 | 23 ft | 8 kts | 105° |
| 2026-04-21 21:22 | 44.41479 | 8.83528 | 22 ft | 10 kts | 105° |
| 2026-04-21 21:22 | 44.41456 | 8.83638 | 22 ft | 14 kts | 105° |
| 2026-04-21 21:22 | 44.41426 | 8.83794 | 18 ft | 19 kts | 105° |
| 2026-04-21 21:23 | 44.41389 | 8.83982 | 19 ft | 22 kts | 105° |
| 2026-04-21 21:23 | 44.41345 | 8.84207 | 16 ft | 26 kts | 105° |
| 2026-04-21 21:23 | 44.41314 | 8.84386 | 19 ft | 12 kts | 90° |
| 2026-04-21 21:23 | 44.41353 | 8.84477 | 18 ft | 10 kts | 52° |
| 2026-04-21 21:24 | 44.41395 | 8.84555 | 18 ft | 10 kts | 52° |
| 2026-04-21 21:24 | 44.41410 | 8.84650 | 18 ft | 12 kts | 105° |
| 2026-04-21 21:24 | 44.41385 | 8.84776 | 18 ft | 14 kts | 105° |
| 2026-04-21 21:24 | 44.41361 | 8.84905 | 18 ft | 13 kts | 105° |
| 2026-04-21 21:25 | 44.41339 | 8.85028 | 18 ft | 13 kts | 104° |
| 2026-04-21 21:25 | 44.41328 | 8.85135 | 18 ft | 9 kts | 65° |
| 2026-04-21 21:25 | 44.41350 | 8.85145 | 18 ft | 1 kts | 2° |
| 2026-04-21 21:25 | 44.41353 | 8.85145 | 18 ft | 1 kts | 4° |
| 2026-04-21 21:26 | 44.41371 | 8.85152 | 18 ft | 3 kts | 15° |
| 2026-04-21 21:26 | 44.41376 | 8.85154 | 18 ft | 0 kts | 15° |